createdAt,value
2018-03-31T00:01:38.475Z,9.27
2018-03-31T00:04:07.115Z,8.70
2018-03-31T00:06:35.235Z,9.82
2018-03-31T00:09:03.095Z,11.98
2018-03-31T00:11:30.934Z,9.32
2018-03-31T00:13:58.774Z,9.75
2018-03-31T00:16:26.575Z,8.77
2018-03-31T00:18:54.374Z,8.97
2018-03-31T00:21:22.412Z,8.13
2018-03-31T00:23:50.602Z,8.23
2018-03-31T00:26:18.807Z,8.02
2018-03-31T00:28:46.814Z,7.05
2018-03-31T00:31:15.542Z,9.27
2018-03-31T00:33:43.651Z,7.70
2018-03-31T00:36:11.456Z,8.57
2018-03-31T00:38:39.311Z,7.18
2018-03-31T00:41:07.220Z,8.40
2018-03-31T00:43:36.082Z,6.47
2018-03-31T00:46:04.181Z,9.00
2018-03-31T00:48:32.836Z,9.23
2018-03-31T00:51:00.830Z,9.82
2018-03-31T00:53:29.444Z,7.45
2018-03-31T00:55:58.020Z,9.35
2018-03-31T00:58:25.851Z,8.55
2018-03-31T01:00:54.445Z,10.17
2018-03-31T01:03:22.454Z,9.87
2018-03-31T01:05:50.874Z,10.45
2018-03-31T01:08:18.818Z,10.75
2018-03-31T01:10:48.818Z,9.30
2018-03-31T01:13:17.856Z,10.20
2018-03-31T01:15:45.798Z,8.98
2018-03-31T01:18:14.206Z,10.90
2018-03-31T01:20:42.077Z,11.55
2018-03-31T01:23:10.842Z,10.75
2018-03-31T01:25:38.677Z,8.97
2018-03-31T01:28:06.567Z,9.45
2018-03-31T01:30:34.633Z,10.67
2018-03-31T01:33:02.439Z,9.93
2018-03-31T01:35:30.274Z,11.93
2018-03-31T01:37:58.070Z,9.30
2018-03-31T01:40:26.106Z,8.57
2018-03-31T01:42:53.910Z,7.05
2018-03-31T01:45:21.742Z,9.70
2018-03-31T01:47:49.654Z,9.07
2018-03-31T01:50:17.615Z,9.48
2018-03-31T01:52:47.510Z,9.73
2018-03-31T01:55:16.300Z,11.35
2018-03-31T01:57:44.338Z,9.50
2018-03-31T02:00:12.222Z,9.82
2018-03-31T02:02:40.031Z,8.53
2018-03-31T02:05:08.594Z,9.05
2018-03-31T02:07:36.598Z,7.78
2018-03-31T02:10:04.586Z,9.87
2018-03-31T02:12:32.458Z,8.13
2018-03-31T02:15:00.253Z,8.35
2018-03-31T02:17:28.379Z,9.10
2018-03-31T02:19:56.177Z,8.70
2018-03-31T02:22:23.973Z,8.10
2018-03-31T02:24:51.802Z,7.27
2018-03-31T02:27:19.775Z,9.23
2018-03-31T02:29:50.987Z,9.70
2018-03-31T02:32:19.174Z,7.90
2018-03-31T02:34:47.614Z,8.75
2018-03-31T02:37:15.603Z,8.10
2018-03-31T02:39:43.971Z,7.07
2018-03-31T02:42:11.904Z,6.95
2018-03-31T02:44:39.808Z,7.05
2018-03-31T02:47:07.607Z,7.37
2018-03-31T02:49:36.089Z,7.73
2018-03-31T02:52:03.918Z,8.98
2018-03-31T02:54:32.517Z,7.43
2018-03-31T02:57:00.355Z,8.55
2018-03-31T02:59:28.165Z,7.40
2018-03-31T03:01:56.178Z,5.60
2018-03-31T03:04:23.983Z,7.07
2018-03-31T03:06:51.850Z,8.18
2018-03-31T03:09:19.868Z,5.12
2018-03-31T03:11:49.179Z,7.30
2018-03-31T03:14:17.931Z,9.82
2018-03-31T03:16:45.979Z,7.15
2018-03-31T03:19:13.731Z,10.15
2018-03-31T03:21:42.079Z,6.93
2018-03-31T03:24:09.760Z,8.57
2018-03-31T03:26:37.558Z,9.20
2018-03-31T03:29:05.432Z,4.80
2018-03-31T03:31:33.199Z,8.75
2018-03-31T03:34:01.626Z,8.00
2018-03-31T03:36:29.225Z,7.93
2018-03-31T03:38:56.827Z,6.40
2018-03-31T03:41:24.391Z,9.57
2018-03-31T03:43:52.012Z,7.55
2018-03-31T03:46:19.730Z,8.15
2018-03-31T03:48:47.535Z,9.13
2018-03-31T03:51:16.689Z,7.25
2018-03-31T03:53:44.434Z,8.93
2018-03-31T03:56:12.067Z,7.60
2018-03-31T03:58:39.729Z,10.40
2018-03-31T04:01:07.418Z,8.88
2018-03-31T04:03:35.786Z,9.55
2018-03-31T04:06:04.324Z,10.23
2018-03-31T04:08:31.974Z,10.77
2018-03-31T04:10:59.572Z,10.23
2018-03-31T04:13:27.894Z,10.48
2018-03-31T04:15:55.502Z,8.90
2018-03-31T04:18:23.058Z,9.25
2018-03-31T04:20:51.393Z,9.95
2018-03-31T04:23:19.200Z,9.98
2018-03-31T04:25:47.264Z,10.35
2018-03-31T04:28:15.187Z,9.73
2018-03-31T04:30:44.783Z,11.45
2018-03-31T04:33:12.927Z,11.30
2018-03-31T04:35:40.682Z,11.25
2018-03-31T04:38:08.352Z,10.77
2018-03-31T04:40:36.215Z,9.55
2018-03-31T04:43:03.846Z,12.88
2018-03-31T04:45:31.436Z,10.27
2018-03-31T04:47:59.026Z,8.05
2018-03-31T04:50:26.583Z,8.25
2018-03-31T04:52:54.183Z,12.13
2018-03-31T04:55:22.042Z,10.27
2018-03-31T04:57:50.980Z,11.77
2018-03-31T05:00:18.790Z,10.50
2018-03-31T05:02:46.934Z,12.18
2018-03-31T05:05:14.669Z,8.82
2018-03-31T05:07:43.181Z,10.05
2018-03-31T05:10:10.827Z,11.57
2018-03-31T05:12:38.444Z,12.80
2018-03-31T05:15:06.065Z,6.30
2018-03-31T05:17:33.662Z,11.98
2018-03-31T05:20:01.270Z,8.98
2018-03-31T05:22:29.707Z,10.45
2018-03-31T05:24:57.373Z,9.38
2018-03-31T05:27:24.939Z,10.88
2018-03-31T05:29:53.374Z,11.98
2018-03-31T05:32:21.034Z,10.77
2018-03-31T05:34:49.447Z,10.63
2018-03-31T05:37:17.384Z,10.27
2018-03-31T05:39:44.951Z,9.65
2018-03-31T05:42:12.749Z,9.00
2018-03-31T05:44:41.065Z,9.55
2018-03-31T05:47:08.718Z,11.80
2018-03-31T05:49:36.392Z,11.95
2018-03-31T05:52:04.275Z,8.77
2018-03-31T05:54:32.091Z,12.25
2018-03-31T05:56:59.686Z,12.05
2018-03-31T05:59:27.255Z,11.52
2018-03-31T06:01:54.856Z,11.35
2018-03-31T06:04:22.739Z,9.73
2018-03-31T06:06:50.307Z,10.52
2018-03-31T06:09:18.691Z,9.48
2018-03-31T06:11:46.934Z,7.15
2018-03-31T06:14:14.611Z,12.80
2018-03-31T06:16:42.270Z,9.43
2018-03-31T06:19:09.899Z,12.25
2018-03-31T06:21:37.458Z,11.80
2018-03-31T06:24:05.103Z,8.97
2018-03-31T06:26:32.687Z,10.60
2018-03-31T06:29:00.342Z,10.87
2018-03-31T06:31:27.985Z,10.95
2018-03-31T06:33:56.350Z,11.70
2018-03-31T06:36:24.133Z,13.10
2018-03-31T06:38:51.700Z,12.15
2018-03-31T06:41:19.386Z,11.10
2018-03-31T06:43:47.152Z,11.20
2018-03-31T06:46:15.838Z,11.90
2018-03-31T06:48:43.575Z,12.07
2018-03-31T06:51:11.186Z,9.07
2018-03-31T06:53:38.746Z,10.95
2018-03-31T06:56:06.352Z,12.47
2018-03-31T06:58:34.016Z,10.90
2018-03-31T07:01:01.632Z,12.43
2018-03-31T07:03:29.197Z,12.57
2018-03-31T07:05:56.890Z,8.30
2018-03-31T07:08:24.455Z,9.50
2018-03-31T07:10:52.006Z,13.53
2018-03-31T07:13:22.403Z,13.37
2018-03-31T07:15:50.074Z,11.93
2018-03-31T07:18:17.739Z,13.97
2018-03-31T07:20:45.372Z,14.40
2018-03-31T07:23:13.148Z,12.30
2018-03-31T07:25:40.743Z,14.10
2018-03-31T07:28:08.325Z,12.20
2018-03-31T07:30:35.974Z,15.43
2018-03-31T07:33:04.494Z,13.62
2018-03-31T07:35:32.086Z,11.43
2018-03-31T07:37:59.679Z,15.73
2018-03-31T07:40:27.618Z,13.63
2018-03-31T07:42:55.179Z,13.10
2018-03-31T07:45:22.778Z,15.30
2018-03-31T07:47:50.371Z,14.03
2018-03-31T07:50:18.000Z,14.37
2018-03-31T07:52:45.695Z,11.03
2018-03-31T07:55:13.798Z,11.17
2018-03-31T07:57:41.419Z,15.77
2018-03-31T08:00:08.979Z,15.43
2018-03-31T08:02:36.638Z,14.53
2018-03-31T08:05:04.560Z,13.70
2018-03-31T08:07:32.161Z,14.87
2018-03-31T08:09:59.875Z,10.50
2018-03-31T08:12:28.728Z,15.20
2018-03-31T08:14:56.286Z,13.20
2018-03-31T08:17:24.623Z,16.33
2018-03-31T08:19:52.214Z,17.07
2018-03-31T08:22:19.770Z,14.70
2018-03-31T08:24:47.506Z,11.93
2018-03-31T08:27:15.216Z,15.83
2018-03-31T08:29:42.894Z,14.93
2018-03-31T08:32:10.553Z,14.87
2018-03-31T08:34:38.115Z,15.10
2018-03-31T08:37:05.698Z,15.10
2018-03-31T08:39:33.481Z,12.07
2018-03-31T08:42:01.288Z,16.75
2018-03-31T08:44:28.971Z,16.20
2018-03-31T08:46:56.529Z,11.47
2018-03-31T08:49:24.878Z,14.50
2018-03-31T08:51:52.438Z,13.65
2018-03-31T08:54:20.030Z,14.73
2018-03-31T08:56:47.647Z,13.97
2018-03-31T08:59:15.668Z,15.03
2018-03-31T09:01:43.282Z,11.77
2018-03-31T09:04:10.878Z,10.37
2018-03-31T09:06:38.533Z,13.10
2018-03-31T09:09:06.920Z,11.97
2018-03-31T09:11:34.950Z,15.00
2018-03-31T09:14:02.683Z,14.00
2018-03-31T09:16:30.278Z,13.30
2018-03-31T09:18:57.870Z,11.77
2018-03-31T09:21:25.716Z,13.43
2018-03-31T09:23:53.272Z,12.00
2018-03-31T09:26:21.680Z,12.93
2018-03-31T09:28:50.105Z,13.73
2018-03-31T09:31:17.799Z,13.30
2018-03-31T09:33:45.472Z,14.63
2018-03-31T09:36:13.334Z,13.00
2018-03-31T09:38:41.058Z,10.67
2018-03-31T09:41:08.630Z,9.00
2018-03-31T09:43:36.416Z,13.60
2018-03-31T09:46:04.828Z,14.67
2018-03-31T09:48:32.479Z,12.97
2018-03-31T09:51:00.874Z,14.17
2018-03-31T09:53:28.492Z,12.87
2018-03-31T09:55:56.451Z,14.27
2018-03-31T09:58:24.055Z,16.43
2018-03-31T10:03:44.086Z,15.17
2018-03-31T10:06:11.679Z,12.47
2018-03-31T10:08:39.314Z,11.03
2018-03-31T10:11:06.878Z,10.20
2018-03-31T10:13:35.240Z,13.30
2018-03-31T10:16:02.884Z,14.53
2018-03-31T10:18:30.490Z,15.17
2018-03-31T10:20:58.055Z,14.33
2018-03-31T10:23:25.657Z,10.70
2018-03-31T10:25:53.491Z,11.20
2018-03-31T10:28:21.050Z,13.03
2018-03-31T10:30:48.698Z,15.00
2018-03-31T10:33:16.638Z,12.53
2018-03-31T10:35:45.139Z,15.93
2018-03-31T10:38:13.470Z,14.60
2018-03-31T10:40:41.840Z,11.53
2018-03-31T10:43:09.455Z,14.93
2018-03-31T10:45:37.019Z,11.00
2018-03-31T10:48:04.650Z,14.17
2018-03-31T10:50:33.386Z,15.23
2018-03-31T10:53:01.782Z,8.27
2018-03-31T10:55:29.329Z,16.70
2018-03-31T10:57:56.922Z,16.17
2018-03-31T11:00:25.278Z,15.77
2018-03-31T11:02:52.838Z,13.00
2018-03-31T11:05:20.607Z,15.90
2018-03-31T11:07:48.262Z,16.77
2018-03-31T11:10:15.983Z,11.83
2018-03-31T11:12:43.686Z,14.90
2018-03-31T11:15:11.283Z,14.80
2018-03-31T11:17:38.843Z,16.57
2018-03-31T11:20:07.258Z,15.83
2018-03-31T11:22:34.993Z,15.93
2018-03-31T11:25:02.625Z,12.53
2018-03-31T11:27:31.259Z,15.57
2018-03-31T11:29:58.810Z,17.90
2018-03-31T11:32:27.130Z,15.40
2018-03-31T11:34:54.721Z,15.57
2018-03-31T11:37:22.323Z,14.77
2018-03-31T11:39:50.007Z,14.57
2018-03-31T11:42:17.838Z,19.47
2018-03-31T11:44:45.994Z,17.53
2018-03-31T11:47:13.880Z,16.77
2018-03-31T11:49:41.491Z,16.03
2018-03-31T11:52:09.267Z,17.57
2018-03-31T11:54:37.024Z,15.77
2018-03-31T11:57:05.430Z,20.13
2018-03-31T11:59:33.074Z,15.57
2018-03-31T12:02:00.622Z,17.03
2018-03-31T12:04:28.206Z,17.27
2018-03-31T12:06:55.768Z,16.00
2018-03-31T12:09:24.403Z,14.33
2018-03-31T12:11:51.966Z,12.23
2018-03-31T12:14:20.410Z,14.13
2018-03-31T12:16:48.147Z,15.83
2018-03-31T12:19:16.622Z,17.27
2018-03-31T12:21:44.250Z,15.43
2018-03-31T12:24:11.850Z,17.87
2018-03-31T12:26:39.596Z,15.70
2018-03-31T12:29:07.194Z,14.53
2018-03-31T12:31:35.635Z,15.10
2018-03-31T12:34:03.197Z,17.10
2018-03-31T12:36:31.551Z,12.43
2018-03-31T12:38:59.106Z,16.47
2018-03-31T12:41:26.667Z,13.97
2018-03-31T12:43:55.043Z,18.13
2018-03-31T12:46:22.635Z,14.07
2018-03-31T12:48:50.391Z,17.30
2018-03-31T12:51:18.047Z,14.30
2018-03-31T12:53:45.880Z,17.20
2018-03-31T12:56:13.579Z,17.73
2018-03-31T12:58:41.150Z,17.20
2018-03-31T13:01:08.739Z,18.77
2018-03-31T13:03:36.403Z,16.43
2018-03-31T13:06:04.154Z,17.83
2018-03-31T13:08:31.779Z,16.13
2018-03-31T13:10:59.339Z,16.00
2018-03-31T13:13:26.934Z,15.77
2018-03-31T13:15:54.486Z,16.77
2018-03-31T13:18:22.847Z,18.37
2018-03-31T13:20:50.534Z,18.37
2018-03-31T13:23:18.277Z,17.50
2018-03-31T13:25:46.065Z,17.33
2018-03-31T13:28:14.594Z,20.50
2018-03-31T13:30:42.190Z,18.60
2018-03-31T13:33:09.764Z,18.53
2018-03-31T13:35:37.407Z,17.10
2018-03-31T13:38:05.069Z,17.63
2018-03-31T13:40:33.463Z,17.67
2018-03-31T13:43:01.132Z,16.83
2018-03-31T13:45:28.694Z,18.23
2018-03-31T13:47:57.042Z,19.17
2018-03-31T13:50:24.637Z,18.40
2018-03-31T13:52:52.222Z,18.47
2018-03-31T13:55:20.022Z,18.90
2018-03-31T13:57:47.842Z,18.53
2018-03-31T14:00:16.388Z,19.07
2018-03-31T14:02:44.597Z,18.37
2018-03-31T14:05:13.024Z,18.77
2018-03-31T14:07:40.727Z,19.53
2018-03-31T14:10:08.373Z,19.30
2018-03-31T14:12:35.990Z,20.33
2018-03-31T14:15:03.595Z,20.17
2018-03-31T14:17:31.916Z,20.20
2018-03-31T14:19:59.478Z,20.50
2018-03-31T14:22:27.839Z,19.47
2018-03-31T14:24:55.404Z,21.33
2018-03-31T14:27:23.461Z,21.37
2018-03-31T14:29:51.818Z,20.93
2018-03-31T14:32:19.479Z,20.57
2018-03-31T14:34:47.127Z,19.27
2018-03-31T14:37:14.858Z,20.80
2018-03-31T14:39:42.437Z,22.03
2018-03-31T14:42:10.046Z,22.43
2018-03-31T14:44:37.607Z,21.43
2018-03-31T14:47:05.309Z,22.47
2018-03-31T14:49:32.874Z,22.93
2018-03-31T14:52:00.573Z,22.73
2018-03-31T14:54:28.118Z,23.40
2018-03-31T14:56:56.475Z,24.70
2018-03-31T14:59:24.036Z,22.77
2018-03-31T15:01:51.627Z,24.30
2018-03-31T15:04:19.517Z,23.77
2018-03-31T15:06:47.296Z,24.00
2018-03-31T15:09:15.298Z,24.47
2018-03-31T15:11:43.278Z,23.60
2018-03-31T15:14:11.138Z,26.37
2018-03-31T15:16:38.713Z,25.77
2018-03-31T15:19:06.363Z,25.97
2018-03-31T15:21:34.002Z,25.57
2018-03-31T15:24:01.733Z,25.80
2018-03-31T15:26:29.297Z,25.47
2018-03-31T15:28:57.650Z,25.40
2018-03-31T15:31:25.238Z,27.23
2018-03-31T15:33:52.987Z,26.53
2018-03-31T15:36:20.658Z,26.67
2018-03-31T15:38:48.331Z,26.93
2018-03-31T15:41:16.363Z,24.13
2018-03-31T15:43:44.166Z,28.47
2018-03-31T15:46:11.795Z,27.63
2018-03-31T15:48:39.377Z,28.10
2018-03-31T15:51:07.022Z,25.90
2018-03-31T15:53:34.884Z,24.30
2018-03-31T15:56:02.538Z,30.07
2018-03-31T15:58:30.171Z,24.73
2018-03-31T16:00:57.850Z,25.80
2018-03-31T16:03:25.437Z,26.20
2018-03-31T16:05:52.994Z,26.10
2018-03-31T16:08:21.439Z,25.53
2018-03-31T16:10:49.209Z,26.63
2018-03-31T16:13:17.027Z,23.83
2018-03-31T16:15:44.863Z,26.90
2018-03-31T16:18:12.780Z,24.90
2018-03-31T16:20:40.342Z,24.33
2018-03-31T16:23:08.668Z,25.87
2018-03-31T16:25:36.400Z,25.97
2018-03-31T16:28:05.066Z,24.33
2018-03-31T16:30:32.718Z,24.93
2018-03-31T16:33:00.402Z,26.20
2018-03-31T16:35:28.035Z,25.23
2018-03-31T16:37:55.631Z,26.93
2018-03-31T16:40:23.191Z,28.90
2018-03-31T16:42:51.228Z,26.60
2018-03-31T16:45:18.891Z,25.47
2018-03-31T16:47:47.618Z,28.57
2018-03-31T16:50:15.226Z,33.20
2018-03-31T16:52:42.923Z,29.90
2018-03-31T16:55:11.256Z,27.03
2018-03-31T16:57:38.851Z,30.17
2018-03-31T17:00:06.447Z,29.63
2018-03-31T17:02:34.233Z,36.17
2018-03-31T17:05:01.794Z,41.53
2018-03-31T17:07:30.318Z,40.10
2018-03-31T17:09:57.874Z,33.53
2018-03-31T17:12:26.193Z,32.50
2018-03-31T17:14:53.802Z,31.97
2018-03-31T17:17:21.681Z,33.97
2018-03-31T17:19:49.364Z,43.70
2018-03-31T17:22:17.156Z,40.87
2018-03-31T17:24:45.152Z,30.77
2018-03-31T17:27:13.076Z,27.00
2018-03-31T17:29:40.659Z,27.50
2018-03-31T17:32:08.326Z,26.83
2018-03-31T17:34:36.082Z,26.80
2018-03-31T17:37:04.508Z,28.03
2018-03-31T17:39:32.197Z,35.13
2018-03-31T17:41:59.763Z,26.20
2018-03-31T17:44:28.122Z,27.10
2018-03-31T17:46:55.674Z,26.33
2018-03-31T17:49:23.262Z,27.10
2018-03-31T17:51:51.049Z,26.60
2018-03-31T17:54:18.796Z,28.60
2018-03-31T17:56:47.346Z,27.73
2018-03-31T17:59:15.255Z,28.93
2018-03-31T18:01:43.342Z,27.97
2018-03-31T18:04:10.946Z,25.90
2018-03-31T18:06:38.535Z,28.50
2018-03-31T18:09:06.208Z,30.10
2018-03-31T18:11:34.026Z,27.87
2018-03-31T18:14:01.718Z,31.20
2018-03-31T18:16:29.312Z,28.17
2018-03-31T18:18:56.907Z,29.20
2018-03-31T18:21:30.708Z,27.10
2018-03-31T18:23:58.470Z,30.27
2018-03-31T18:26:26.026Z,28.87
2018-03-31T18:28:54.355Z,29.70
2018-03-31T18:31:21.947Z,28.57
2018-03-31T18:33:49.625Z,29.97
2018-03-31T18:36:17.510Z,29.90
2018-03-31T18:38:45.555Z,29.60
2018-03-31T18:41:13.990Z,28.93
2018-03-31T18:43:41.567Z,29.93
2018-03-31T18:46:09.164Z,28.53
2018-03-31T18:48:37.591Z,28.27
2018-03-31T18:51:05.369Z,29.00
2018-03-31T18:53:33.123Z,26.57
2018-03-31T18:56:01.573Z,27.23
2018-03-31T18:58:29.170Z,30.97
2018-03-31T19:00:56.753Z,30.80
2018-03-31T19:03:24.354Z,26.80
2018-03-31T19:05:52.011Z,31.43
2018-03-31T19:08:19.659Z,30.50
2018-03-31T19:10:48.718Z,29.70
2018-03-31T19:13:16.342Z,33.40
2018-03-31T19:15:44.812Z,29.20
2018-03-31T19:18:12.491Z,28.70
2018-03-31T19:20:40.186Z,29.63
2018-03-31T19:23:07.752Z,33.30
2018-03-31T19:25:36.210Z,28.17
2018-03-31T19:28:04.802Z,30.20
2018-03-31T19:30:37.860Z,30.60
2018-03-31T19:33:05.550Z,31.67
2018-03-31T19:35:39.642Z,31.83
2018-03-31T19:38:07.274Z,33.67
2018-03-31T19:40:35.008Z,32.77
2018-03-31T19:43:02.575Z,28.63
2018-03-31T19:45:30.165Z,29.10
2018-03-31T19:47:57.722Z,32.13
2018-03-31T19:50:26.078Z,27.10
2018-03-31T19:52:53.671Z,27.50
2018-03-31T19:55:21.245Z,27.03
2018-03-31T19:57:49.010Z,28.80
2018-03-31T20:00:16.699Z,27.83
2018-03-31T20:02:44.367Z,30.10
2018-03-31T20:05:12.083Z,27.43
2018-03-31T20:07:39.657Z,26.50
2018-03-31T20:10:07.381Z,29.57
2018-03-31T20:12:35.127Z,29.73
2018-03-31T20:15:02.732Z,26.10
2018-03-31T20:17:30.618Z,24.27
2018-03-31T20:19:58.178Z,26.10
2018-03-31T20:22:26.498Z,24.00
2018-03-31T20:24:54.095Z,25.20
2018-03-31T20:27:21.816Z,21.50
2018-03-31T20:29:49.764Z,22.63
2018-03-31T20:32:17.580Z,25.10
2018-03-31T20:34:45.851Z,25.10
2018-03-31T20:37:13.669Z,24.73
2018-03-31T20:39:41.263Z,23.40
2018-03-31T20:42:08.897Z,28.87
2018-03-31T20:44:37.315Z,24.23
2018-03-31T20:47:05.942Z,22.67
2018-03-31T20:49:33.641Z,22.07
2018-03-31T20:52:01.315Z,24.43
2018-03-31T20:54:28.999Z,23.10
2018-03-31T20:56:56.546Z,22.40
2018-03-31T20:59:24.906Z,22.90
2018-03-31T21:01:52.489Z,21.63
2018-03-31T21:04:20.145Z,23.17
2018-03-31T21:06:48.449Z,21.80
2018-03-31T21:09:16.341Z,22.57
2018-03-31T21:11:44.079Z,23.13
2018-03-31T21:14:11.682Z,21.80
2018-03-31T21:16:39.302Z,23.03
2018-03-31T21:19:07.400Z,23.80
2018-03-31T21:21:35.057Z,22.13
2018-03-31T21:24:03.394Z,21.33
2018-03-31T21:26:30.986Z,22.00
2018-03-31T21:28:58.546Z,19.20
2018-03-31T21:31:26.975Z,20.50
2018-03-31T21:33:54.550Z,20.63
2018-03-31T21:36:22.136Z,22.13
2018-03-31T21:38:49.831Z,19.07
2018-03-31T21:41:17.531Z,19.20
2018-03-31T21:43:45.442Z,20.23
2018-03-31T21:46:13.276Z,23.70
2018-03-31T21:48:41.630Z,21.10
2018-03-31T21:51:09.222Z,21.10
2018-03-31T21:53:36.900Z,21.90
2018-03-31T21:56:04.649Z,22.40
2018-03-31T21:58:32.198Z,22.33
2018-03-31T22:00:59.761Z,22.13
2018-03-31T22:03:27.354Z,21.23
2018-03-31T22:05:54.910Z,21.40
2018-03-31T22:08:22.462Z,22.40
2018-03-31T22:10:50.260Z,21.50
2018-03-31T22:13:23.431Z,24.10
2018-03-31T22:15:51.066Z,24.40
2018-03-31T22:18:19.000Z,23.10
2018-03-31T22:20:46.953Z,23.33
2018-03-31T22:23:14.745Z,20.60
2018-03-31T22:25:42.440Z,21.63
2018-03-31T22:28:10.039Z,24.73
2018-03-31T22:30:37.591Z,25.20
2018-03-31T22:33:05.255Z,21.60
2018-03-31T22:35:32.814Z,24.53
2018-03-31T22:38:00.366Z,22.40
2018-03-31T22:40:27.952Z,22.03
2018-03-31T22:42:55.542Z,21.50
2018-03-31T22:45:23.187Z,23.30
2018-03-31T22:47:51.534Z,21.60
2018-03-31T22:50:19.400Z,20.43
2018-03-31T22:52:47.110Z,22.40
2018-03-31T22:55:14.979Z,20.90
2018-03-31T22:57:42.976Z,20.80
2018-03-31T23:00:10.626Z,21.40
2018-03-31T23:02:38.553Z,27.00
2018-03-31T23:05:06.355Z,22.77
2018-03-31T23:07:34.330Z,23.40
2018-03-31T23:10:02.241Z,21.43
2018-03-31T23:12:30.102Z,20.90
2018-03-31T23:14:57.939Z,19.20
2018-03-31T23:17:25.813Z,16.57
2018-03-31T23:19:53.651Z,17.40
2018-03-31T23:22:22.316Z,16.17
2018-03-31T23:24:50.408Z,13.33
2018-03-31T23:27:19.058Z,15.27
2018-03-31T23:29:47.823Z,14.17
2018-03-31T23:32:15.836Z,11.50
2018-03-31T23:34:43.835Z,12.10
2018-03-31T23:37:11.711Z,11.17
2018-03-31T23:39:39.297Z,9.67
2018-03-31T23:42:06.976Z,11.40
2018-03-31T23:44:35.395Z,8.13
2018-03-31T23:47:03.010Z,9.20
2018-03-31T23:49:30.577Z,10.53
2018-03-31T23:51:58.165Z,8.93
2018-03-31T23:54:25.756Z,8.23
2018-03-31T23:56:53.318Z,8.93
2018-03-31T23:59:21.150Z,8.47
